createdAt,value
2023-02-08T00:00:06.486Z,13.97
2023-02-08T00:02:34.247Z,14.33
2023-02-08T00:05:01.034Z,15.17
2023-02-08T00:07:27.683Z,14.03
2023-02-08T00:09:54.195Z,15.07
2023-02-08T00:12:20.690Z,16.40
2023-02-08T00:14:47.265Z,15.43
2023-02-08T00:17:14.168Z,15.30
2023-02-08T00:19:40.680Z,14.77
2023-02-08T00:22:07.435Z,16.03
2023-02-08T00:24:33.945Z,14.57
2023-02-08T00:27:00.459Z,16.30
2023-02-08T00:29:27.010Z,15.60
2023-02-08T00:31:53.734Z,15.50
2023-02-08T00:34:20.604Z,15.67
2023-02-08T00:36:48.296Z,17.30
2023-02-08T00:39:14.827Z,17.47
2023-02-08T00:41:42.038Z,16.67
2023-02-08T00:44:08.785Z,14.97
2023-02-08T00:46:35.340Z,15.30
2023-02-08T00:49:01.926Z,15.57
2023-02-08T00:51:28.410Z,15.83
2023-02-08T00:53:54.929Z,15.80
2023-02-08T00:56:21.580Z,15.47
2023-02-08T00:58:48.158Z,15.57
2023-02-08T01:01:14.902Z,15.97
2023-02-08T01:03:43.226Z,17.67
2023-02-08T01:06:13.873Z,16.27
2023-02-08T01:08:40.555Z,17.57
2023-02-08T01:11:13.016Z,16.83
2023-02-08T01:13:40.381Z,18.37
2023-02-08T01:16:12.403Z,18.20
2023-02-08T01:18:41.181Z,18.53
2023-02-08T01:21:15.154Z,16.53
2023-02-08T01:23:43.022Z,18.70
2023-02-08T01:26:10.638Z,16.17
2023-02-08T01:28:38.890Z,17.57
2023-02-08T01:31:11.852Z,16.13
2023-02-08T01:33:38.523Z,16.47
2023-02-08T01:36:07.047Z,18.87
2023-02-08T01:38:35.260Z,18.13
2023-02-08T01:41:03.083Z,17.53
2023-02-08T01:43:33.887Z,16.67
2023-02-08T01:46:00.448Z,18.53
2023-02-08T01:48:31.675Z,17.13
2023-02-08T01:51:15.131Z,17.90
2023-02-08T01:53:43.625Z,18.10
2023-02-08T01:56:17.225Z,17.30
2023-02-08T01:58:49.219Z,17.67
2023-02-08T02:01:16.145Z,16.53
2023-02-08T02:03:43.809Z,19.23
2023-02-08T02:06:16.103Z,20.00
2023-02-08T02:08:52.384Z,20.60
2023-02-08T02:11:19.924Z,17.87
2023-02-08T02:13:47.995Z,19.67
2023-02-08T02:16:14.571Z,18.70
2023-02-08T02:18:41.256Z,20.20
2023-02-08T02:21:11.212Z,19.57
2023-02-08T02:23:58.805Z,20.30
2023-02-08T02:26:49.936Z,19.40
2023-02-08T02:29:31.385Z,20.70
2023-02-08T02:32:07.920Z,22.00
2023-02-08T02:34:44.886Z,19.80
2023-02-08T02:37:37.536Z,21.77
2023-02-08T02:40:42.099Z,20.40
2023-02-08T02:43:43.462Z,19.80
2023-02-08T02:46:28.328Z,17.93
2023-02-08T02:49:23.009Z,17.10
2023-02-08T02:52:03.377Z,19.73
2023-02-08T02:54:45.375Z,20.30
2023-02-08T02:57:16.997Z,20.20
2023-02-08T02:59:46.674Z,20.17
2023-02-08T03:02:13.903Z,19.27
2023-02-08T03:04:40.788Z,20.10
2023-02-08T03:07:17.919Z,18.50
2023-02-08T03:09:59.615Z,19.20
2023-02-08T03:12:29.263Z,19.97
2023-02-08T03:15:03.934Z,18.80
2023-02-08T03:17:59.244Z,21.17
2023-02-08T03:20:30.277Z,19.30
2023-02-08T03:23:06.338Z,19.23
2023-02-08T03:25:55.171Z,18.50
2023-02-08T03:28:49.671Z,18.27
2023-02-08T03:31:32.882Z,19.60
2023-02-08T03:34:09.104Z,19.23
2023-02-08T03:36:42.888Z,20.10
2023-02-08T03:39:15.509Z,19.07
2023-02-08T03:41:47.013Z,18.60
2023-02-08T03:44:18.681Z,20.37
2023-02-08T03:47:02.802Z,20.67
2023-02-08T03:49:33.504Z,18.77
2023-02-08T03:52:03.267Z,20.80
2023-02-08T03:54:35.404Z,20.80
2023-02-08T03:57:20.959Z,18.83
2023-02-08T03:59:53.717Z,19.10
2023-02-08T04:02:23.505Z,19.67
2023-02-08T04:04:52.028Z,18.60
2023-02-08T04:07:19.450Z,21.60
2023-02-08T04:09:46.506Z,21.80
2023-02-08T04:12:13.526Z,18.13
2023-02-08T04:14:40.437Z,21.00
2023-02-08T04:17:06.986Z,20.33
2023-02-08T04:19:33.482Z,21.67
2023-02-08T04:22:00.263Z,19.93
2023-02-08T04:24:26.785Z,21.77
2023-02-08T04:26:53.478Z,19.97
2023-02-08T04:29:19.972Z,20.63
2023-02-08T04:31:46.960Z,20.80
2023-02-08T04:34:13.562Z,19.83
2023-02-08T04:36:40.120Z,20.47
2023-02-08T04:39:06.643Z,20.63
2023-02-08T04:41:33.172Z,19.97
2023-02-08T04:44:00.016Z,20.47
2023-02-08T04:46:26.579Z,21.17
2023-02-08T04:48:53.096Z,21.07
2023-02-08T04:51:19.741Z,22.03
2023-02-08T04:53:46.250Z,20.97
2023-02-08T04:56:12.762Z,21.83
2023-02-08T04:58:39.293Z,20.87
2023-02-08T05:01:07.753Z,20.30
2023-02-08T05:03:34.599Z,22.33
2023-02-08T05:06:01.097Z,20.83
2023-02-08T05:08:28.005Z,19.97
2023-02-08T05:10:54.885Z,21.20
2023-02-08T05:13:21.517Z,21.03
2023-02-08T05:15:48.405Z,20.60
2023-02-08T05:18:14.989Z,21.43
2023-02-08T05:20:41.817Z,22.20
2023-02-08T05:23:08.517Z,22.33
2023-02-08T05:25:35.011Z,20.13
2023-02-08T05:28:01.602Z,21.73
2023-02-08T05:30:28.115Z,21.57
2023-02-08T05:32:54.600Z,21.70
2023-02-08T05:35:21.103Z,20.67
2023-02-08T05:37:47.759Z,21.83
2023-02-08T05:40:14.262Z,21.70
2023-02-08T05:42:42.326Z,21.10
2023-02-08T05:45:09.066Z,21.00
2023-02-08T05:47:36.774Z,23.13
2023-02-08T05:50:03.516Z,22.03
2023-02-08T05:52:30.058Z,20.97
2023-02-08T05:54:56.877Z,20.90
2023-02-08T05:57:23.608Z,21.70
2023-02-08T05:59:50.128Z,37.67
2023-02-08T06:02:16.819Z,25.87
2023-02-08T06:04:43.364Z,20.83
2023-02-08T06:07:09.924Z,22.57
2023-02-08T06:09:37.236Z,21.20
2023-02-08T06:12:03.934Z,27.73
2023-02-08T06:14:30.775Z,25.67
2023-02-08T06:16:57.808Z,21.90
2023-02-08T06:19:24.587Z,23.93
2023-02-08T06:21:51.286Z,22.00
2023-02-08T06:24:17.980Z,22.50
2023-02-08T06:26:44.883Z,23.67
2023-02-08T06:29:11.389Z,23.50
2023-02-08T06:31:37.945Z,24.30
2023-02-08T06:34:04.650Z,23.03
2023-02-08T06:36:31.321Z,22.73
2023-02-08T06:38:57.857Z,20.50
2023-02-08T06:41:24.399Z,22.23
2023-02-08T06:43:51.045Z,21.17
2023-02-08T06:46:17.581Z,23.37
2023-02-08T06:48:44.121Z,20.60
2023-02-08T06:51:10.789Z,21.70
2023-02-08T06:53:37.314Z,22.40
2023-02-08T06:56:04.035Z,23.40
2023-02-08T06:58:30.961Z,21.80
2023-02-08T07:00:57.520Z,22.50
2023-02-08T07:03:24.555Z,22.13
2023-02-08T07:06:04.198Z,23.77
2023-02-08T07:08:33.487Z,22.00
2023-02-08T07:11:00.015Z,20.40
2023-02-08T07:13:26.527Z,23.57
2023-02-08T07:15:53.057Z,22.47
2023-02-08T07:18:19.547Z,23.10
2023-02-08T07:20:46.089Z,21.90
2023-02-08T07:23:12.599Z,25.10
2023-02-08T07:25:39.149Z,22.80
2023-02-08T07:28:05.912Z,22.37
2023-02-08T07:30:32.619Z,23.17
2023-02-08T07:32:59.167Z,22.50
2023-02-08T07:35:25.745Z,23.33
2023-02-08T07:37:52.225Z,22.73
2023-02-08T07:40:18.741Z,20.83
2023-02-08T07:42:45.283Z,23.30
2023-02-08T07:45:22.564Z,24.90
2023-02-08T07:47:49.117Z,21.77
2023-02-08T07:50:16.761Z,21.93
2023-02-08T07:52:45.966Z,20.47
2023-02-08T07:55:16.957Z,20.23
2023-02-08T07:57:48.661Z,20.80
2023-02-08T08:00:17.601Z,23.27
2023-02-08T08:02:44.514Z,22.63
2023-02-08T08:05:11.793Z,24.77
2023-02-08T08:07:38.321Z,25.83
2023-02-08T08:10:05.060Z,23.23
2023-02-08T08:12:31.631Z,25.03
2023-02-08T08:14:58.182Z,24.33
2023-02-08T08:17:24.731Z,26.03
2023-02-08T08:19:51.498Z,28.40
2023-02-08T08:22:17.990Z,25.90
2023-02-08T08:24:44.485Z,25.80
2023-02-08T08:27:10.999Z,28.70
2023-02-08T08:29:38.061Z,23.90
2023-02-08T08:32:04.806Z,26.03
2023-02-08T08:34:31.841Z,25.80
2023-02-08T08:36:59.802Z,25.67
2023-02-08T08:39:27.298Z,25.53
2023-02-08T08:41:57.222Z,25.80
2023-02-08T08:44:23.898Z,25.70
2023-02-08T08:46:50.550Z,26.67
2023-02-08T08:49:17.141Z,26.17
2023-02-08T08:51:43.758Z,24.50
2023-02-08T08:54:10.453Z,26.60
2023-02-08T08:56:37.424Z,25.30
2023-02-08T08:59:03.976Z,25.67
2023-02-08T09:01:32.395Z,25.77
2023-02-08T09:04:00.217Z,25.10
2023-02-08T09:06:26.756Z,27.80
2023-02-08T09:08:53.283Z,27.03
2023-02-08T09:11:20.034Z,25.40
2023-02-08T09:13:46.677Z,24.40
2023-02-08T09:16:16.495Z,24.20
2023-02-08T09:18:43.683Z,24.80
2023-02-08T09:21:13.560Z,24.07
2023-02-08T09:23:40.150Z,23.70
2023-02-08T09:26:08.928Z,24.70
2023-02-08T09:28:35.564Z,24.57
2023-02-08T09:31:09.778Z,22.20
2023-02-08T09:33:36.487Z,25.30
2023-02-08T09:36:03.267Z,22.80
2023-02-08T09:38:30.027Z,23.70
2023-02-08T09:41:18.825Z,22.70
2023-02-08T09:44:15.537Z,22.80
2023-02-08T09:46:54.669Z,23.33
2023-02-08T09:49:28.264Z,22.40
2023-02-08T09:52:00.503Z,22.10
2023-02-08T09:54:37.260Z,22.63
2023-02-08T09:57:09.590Z,23.47
2023-02-08T09:59:39.877Z,22.67
2023-02-08T10:02:27.218Z,20.53
2023-02-08T10:05:01.639Z,21.83
2023-02-08T10:07:29.992Z,21.90
2023-02-08T10:09:59.942Z,21.33
2023-02-08T10:12:37.799Z,23.23
2023-02-08T10:15:16.464Z,23.40
2023-02-08T10:18:24.212Z,18.37
2023-02-08T10:21:11.118Z,20.30
2023-02-08T10:23:51.518Z,17.07
2023-02-08T10:26:24.754Z,19.07
2023-02-08T10:29:01.276Z,20.43
2023-02-08T10:32:14.925Z,16.67
2023-02-08T10:35:00.462Z,18.57
2023-02-08T10:37:34.749Z,17.13
2023-02-08T10:40:13.597Z,16.50
2023-02-08T10:42:42.679Z,18.70
2023-02-08T10:45:24.841Z,16.57
2023-02-08T10:47:58.277Z,16.67
2023-02-08T10:50:42.087Z,19.10
2023-02-08T10:53:17.169Z,16.90
2023-02-08T10:55:46.322Z,17.67
2023-02-08T10:58:19.777Z,17.33
2023-02-08T11:00:47.572Z,17.20
2023-02-08T11:03:22.473Z,17.33
2023-02-08T11:05:49.576Z,17.60
2023-02-08T11:08:19.748Z,18.90
2023-02-08T11:11:08.989Z,17.80
2023-02-08T11:13:44.381Z,16.63
2023-02-08T11:16:19.924Z,19.37
2023-02-08T11:18:56.794Z,17.33
2023-02-08T11:21:36.510Z,17.27
2023-02-08T11:24:15.163Z,15.63
2023-02-08T11:26:42.375Z,17.10
2023-02-08T11:29:26.147Z,17.17
2023-02-08T11:31:57.626Z,18.50
2023-02-08T11:34:30.489Z,17.43
2023-02-08T11:36:58.339Z,17.10
2023-02-08T11:39:29.564Z,16.30
2023-02-08T11:42:00.640Z,17.10
2023-02-08T11:44:31.806Z,16.43
2023-02-08T11:47:02.522Z,17.27
2023-02-08T11:49:41.776Z,17.93
2023-02-08T11:52:25.358Z,16.83
2023-02-08T11:54:53.950Z,17.07
2023-02-08T11:57:25.769Z,14.50
2023-02-08T12:00:17.230Z,16.20
2023-02-08T12:02:44.088Z,14.07
2023-02-08T12:05:15.416Z,15.73
2023-02-08T12:07:57.157Z,14.30
2023-02-08T12:10:47.824Z,14.13
2023-02-08T12:13:40.727Z,15.60
2023-02-08T12:16:11.964Z,13.87
2023-02-08T12:18:41.295Z,14.70
2023-02-08T12:21:37.070Z,13.67
2023-02-08T12:24:21.632Z,14.07
2023-02-08T12:27:05.159Z,13.77
2023-02-08T12:30:02.477Z,13.80
2023-02-08T12:32:53.114Z,13.40
2023-02-08T12:35:41.683Z,15.30
2023-02-08T12:39:07.807Z,13.70
2023-02-08T12:42:01.380Z,13.33
2023-02-08T12:44:43.160Z,12.10
2023-02-08T12:47:28.546Z,14.17
2023-02-08T12:50:31.363Z,14.03
2023-02-08T12:53:03.811Z,14.17
2023-02-08T12:55:35.422Z,13.40
2023-02-08T12:58:30.904Z,12.37
2023-02-08T13:01:23.330Z,13.00
2023-02-08T13:04:16.849Z,13.40
2023-02-08T13:06:49.381Z,11.70
2023-02-08T13:09:35.798Z,11.30
2023-02-08T13:12:11.942Z,10.43
2023-02-08T13:14:55.942Z,11.50
2023-02-08T13:17:27.362Z,11.23
2023-02-08T13:20:27.230Z,11.53
2023-02-08T13:22:57.574Z,10.77
2023-02-08T13:25:31.230Z,11.07
2023-02-08T13:28:21.579Z,11.23
2023-02-08T13:31:30.804Z,9.80
2023-02-08T13:34:07.917Z,10.07
2023-02-08T13:36:41.792Z,10.43
2023-02-08T13:39:27.311Z,9.97
2023-02-08T13:41:56.533Z,9.93
2023-02-08T13:44:35.130Z,10.37
2023-02-08T13:47:02.433Z,9.70
2023-02-08T13:49:49.170Z,9.30
2023-02-08T13:52:46.984Z,7.73
2023-02-08T13:55:36.035Z,8.50
2023-02-08T13:58:27.762Z,8.53
2023-02-08T14:00:54.790Z,7.70
2023-02-08T14:03:27.308Z,6.77
2023-02-08T14:06:16.914Z,8.33
2023-02-08T14:09:16.066Z,8.33
2023-02-08T14:11:52.189Z,8.83
2023-02-08T14:14:31.965Z,8.43
2023-02-08T14:17:04.503Z,8.10
2023-02-08T14:19:34.061Z,8.30
2023-02-08T14:22:05.248Z,7.90
2023-02-08T14:24:36.903Z,6.60
2023-02-08T14:27:22.371Z,7.60
2023-02-08T14:30:17.863Z,7.70
2023-02-08T14:32:47.852Z,6.97
2023-02-08T14:35:26.145Z,7.40
2023-02-08T14:38:23.825Z,7.73
2023-02-08T14:40:55.097Z,8.53
2023-02-08T14:43:32.659Z,8.93
2023-02-08T14:46:37.825Z,6.33
2023-02-08T14:49:16.991Z,7.00
2023-02-08T14:52:02.796Z,7.13
2023-02-08T14:54:38.317Z,7.50
2023-02-08T14:57:18.443Z,7.13
2023-02-08T14:59:46.086Z,7.57
2023-02-08T15:02:20.817Z,5.70
2023-02-08T15:04:47.910Z,5.60
2023-02-08T15:07:27.478Z,6.30
2023-02-08T15:09:54.402Z,6.60
2023-02-08T15:12:26.592Z,5.70
2023-02-08T15:14:56.830Z,6.90
2023-02-08T15:17:49.089Z,6.00
2023-02-08T15:20:28.422Z,7.00
2023-02-08T15:23:01.121Z,7.43
2023-02-08T15:25:35.632Z,7.70
2023-02-08T15:28:16.440Z,7.03
2023-02-08T15:30:44.092Z,6.70
2023-02-08T15:33:17.743Z,7.27
2023-02-08T15:35:45.886Z,7.50
2023-02-08T15:38:18.125Z,7.17
2023-02-08T15:41:08.265Z,6.73
2023-02-08T15:43:36.742Z,7.07
2023-02-08T15:46:07.409Z,8.43
2023-02-08T15:48:36.080Z,8.27
2023-02-08T15:51:03.974Z,8.60
2023-02-08T15:53:31.545Z,7.60
2023-02-08T15:56:04.838Z,7.30
2023-02-08T15:58:54.230Z,7.13
2023-02-08T16:01:22.050Z,6.93
2023-02-08T16:03:55.914Z,8.33
2023-02-08T16:06:34.577Z,9.17
2023-02-08T16:09:02.649Z,22.33
2023-02-08T16:11:32.674Z,15.23
2023-02-08T16:14:02.332Z,10.83
2023-02-08T16:16:43.203Z,10.77
2023-02-08T16:19:31.097Z,9.90
2023-02-08T16:22:23.090Z,9.20
2023-02-08T16:24:50.782Z,8.80
2023-02-08T16:27:30.107Z,11.17
2023-02-08T16:29:57.408Z,10.53
2023-02-08T16:32:39.749Z,9.93
2023-02-08T16:35:23.179Z,11.37
2023-02-08T16:38:00.319Z,12.67
2023-02-08T16:40:52.517Z,12.70
2023-02-08T16:43:21.267Z,12.17
2023-02-08T16:46:10.450Z,10.90
2023-02-08T16:48:39.719Z,10.47
2023-02-08T16:51:10.748Z,11.40
2023-02-08T16:53:42.384Z,12.10
2023-02-08T16:56:10.843Z,12.10
2023-02-08T16:58:37.425Z,11.60
2023-02-08T17:01:04.358Z,13.80
2023-02-08T17:03:32.563Z,15.20
2023-02-08T17:06:00.827Z,14.27
2023-02-08T17:08:27.404Z,11.23
2023-02-08T17:10:58.551Z,15.10
2023-02-08T17:13:28.034Z,13.47
2023-02-08T17:15:54.686Z,13.80
2023-02-08T17:18:21.267Z,14.50
2023-02-08T17:20:48.020Z,12.10
2023-02-08T17:23:16.426Z,14.20
2023-02-08T17:25:43.751Z,14.53
2023-02-08T17:28:19.301Z,12.20
2023-02-08T17:30:47.756Z,13.60
2023-02-08T17:33:20.417Z,13.43
2023-02-08T17:35:51.383Z,12.20
2023-02-08T17:38:19.206Z,12.10
2023-02-08T17:40:46.414Z,12.60
2023-02-08T17:43:13.164Z,11.00
2023-02-08T17:45:41.715Z,11.20
2023-02-08T17:48:08.811Z,12.13
2023-02-08T17:50:36.094Z,11.40
2023-02-08T17:53:04.528Z,12.73
2023-02-08T17:55:31.314Z,13.53
2023-02-08T17:57:58.193Z,17.23
2023-02-08T18:00:25.643Z,17.07
2023-02-08T18:02:54.619Z,13.70
2023-02-08T18:05:24.148Z,15.60
2023-02-08T18:07:51.957Z,12.30
2023-02-08T18:10:18.877Z,11.20
2023-02-08T18:12:45.659Z,13.23
2023-02-08T18:15:15.669Z,14.63
2023-02-08T18:17:43.587Z,12.13
2023-02-08T18:20:11.420Z,12.77
2023-02-08T18:22:38.385Z,13.47
2023-02-08T18:25:05.509Z,16.30
2023-02-08T18:27:32.392Z,15.80
2023-02-08T18:29:59.781Z,14.33
2023-02-08T18:32:28.057Z,13.97
2023-02-08T18:34:55.570Z,13.73
2023-02-08T18:37:23.257Z,15.30
2023-02-08T18:39:51.290Z,16.17
2023-02-08T18:42:18.086Z,15.10
2023-02-08T18:44:44.641Z,16.30
2023-02-08T18:47:11.154Z,17.03
2023-02-08T18:49:40.910Z,16.50
2023-02-08T18:52:12.764Z,16.40
2023-02-08T18:54:40.473Z,15.50
2023-02-08T18:57:10.594Z,14.30
2023-02-08T18:59:38.914Z,15.80
2023-02-08T19:02:07.144Z,14.60
2023-02-08T19:04:40.356Z,14.50
2023-02-08T19:07:07.469Z,17.17
2023-02-08T19:09:38.343Z,17.03
2023-02-08T19:12:07.443Z,16.00
2023-02-08T19:14:34.636Z,17.33
2023-02-08T19:17:02.631Z,15.50
2023-02-08T19:19:29.318Z,17.67
2023-02-08T19:21:55.831Z,16.70
2023-02-08T19:24:23.357Z,16.77
2023-02-08T19:26:49.999Z,16.20
2023-02-08T19:29:19.893Z,17.00
2023-02-08T19:31:46.866Z,17.60
2023-02-08T19:34:14.203Z,18.37
2023-02-08T19:36:46.876Z,19.23
2023-02-08T19:39:19.336Z,18.53
2023-02-08T19:41:46.543Z,19.50
2023-02-08T19:44:15.821Z,18.50
2023-02-08T19:46:46.259Z,17.03
2023-02-08T19:49:13.497Z,16.93
2023-02-08T19:51:40.877Z,18.57
2023-02-08T19:54:10.456Z,17.67
2023-02-08T19:56:37.297Z,16.87
2023-02-08T19:59:06.506Z,19.17
2023-02-08T20:01:35.600Z,18.63
2023-02-08T20:04:02.987Z,19.10
2023-02-08T20:06:33.469Z,19.23
2023-02-08T20:09:00.709Z,19.40
2023-02-08T20:11:30.865Z,18.50
2023-02-08T20:13:59.278Z,20.30
2023-02-08T20:16:30.452Z,20.57
2023-02-08T20:19:00.514Z,20.43
2023-02-08T20:21:27.351Z,21.67
2023-02-08T20:23:55.026Z,20.30
2023-02-08T20:26:29.581Z,21.87
2023-02-08T20:28:59.115Z,21.33
2023-02-08T20:31:31.136Z,22.70
2023-02-08T20:34:00.389Z,20.87
2023-02-08T20:36:29.213Z,21.90
2023-02-08T20:38:57.516Z,24.23
2023-02-08T20:41:26.347Z,22.30
2023-02-08T20:43:53.485Z,22.27
2023-02-08T20:46:25.797Z,24.00
2023-02-08T20:48:54.518Z,21.67
2023-02-08T20:51:22.967Z,24.20
2023-02-08T20:53:50.645Z,21.60
2023-02-08T20:56:27.159Z,22.97
2023-02-08T20:58:53.798Z,22.43
2023-02-08T21:01:25.604Z,24.80
2023-02-08T21:03:57.095Z,22.67
2023-02-08T21:06:26.479Z,24.07
2023-02-08T21:08:55.275Z,22.90
2023-02-08T21:11:24.903Z,23.33
2023-02-08T21:13:55.638Z,22.60
2023-02-08T21:16:23.041Z,22.83
2023-02-08T21:18:51.003Z,21.93
2023-02-08T21:21:18.292Z,23.60
2023-02-08T21:23:46.076Z,23.07
2023-02-08T21:26:18.671Z,22.03
2023-02-08T21:28:46.184Z,24.13
2023-02-08T21:31:20.061Z,22.00
2023-02-08T21:33:46.907Z,23.00
2023-02-08T21:36:19.836Z,23.10
2023-02-08T21:38:47.099Z,23.83
2023-02-08T21:41:25.307Z,24.77
2023-02-08T21:43:54.744Z,22.27
2023-02-08T21:46:24.841Z,23.07
2023-02-08T21:49:11.986Z,22.47
2023-02-08T21:51:57.784Z,21.33
2023-02-08T21:54:53.186Z,23.30
2023-02-08T21:57:23.210Z,22.70
2023-02-08T21:59:52.888Z,22.93
2023-02-08T22:02:25.694Z,20.97
2023-02-08T22:05:13.296Z,22.73
2023-02-08T22:07:52.903Z,22.57
2023-02-08T22:10:22.234Z,21.93
2023-02-08T22:12:49.555Z,23.77
2023-02-08T22:15:21.114Z,25.77
2023-02-08T22:17:51.835Z,22.83
2023-02-08T22:20:18.755Z,23.60
2023-02-08T22:22:45.593Z,24.13
2023-02-08T22:25:12.463Z,23.93
2023-02-08T22:27:41.617Z,22.80
2023-02-08T22:30:11.403Z,23.23
2023-02-08T22:32:43.276Z,24.50
2023-02-08T22:35:11.880Z,19.63
2023-02-08T22:37:38.807Z,21.13
2023-02-08T22:40:06.406Z,24.70
2023-02-08T22:42:32.984Z,21.73
2023-02-08T22:44:59.521Z,22.33
2023-02-08T22:47:26.070Z,23.10
2023-02-08T22:49:56.372Z,21.53
2023-02-08T22:52:22.951Z,20.13
2023-02-08T22:54:50.679Z,20.33
2023-02-08T22:57:17.430Z,20.63
2023-02-08T22:59:43.941Z,20.33
2023-02-08T23:02:10.477Z,21.73
2023-02-08T23:04:37.718Z,23.13
2023-02-08T23:07:04.775Z,20.73
2023-02-08T23:09:31.296Z,21.00
2023-02-08T23:11:57.805Z,21.07
2023-02-08T23:14:24.322Z,22.27
2023-02-08T23:16:51.004Z,22.63
2023-02-08T23:19:18.350Z,20.70
2023-02-08T23:21:45.207Z,21.60
2023-02-08T23:24:11.955Z,22.80
2023-02-08T23:26:38.944Z,22.70
2023-02-08T23:29:05.518Z,23.07
2023-02-08T23:31:32.251Z,21.03
2023-02-08T23:34:00.378Z,19.80
2023-02-08T23:36:27.443Z,21.87
2023-02-08T23:38:54.012Z,21.23
2023-02-08T23:41:22.903Z,20.93
2023-02-08T23:43:51.002Z,20.70
2023-02-08T23:46:28.734Z,21.60
2023-02-08T23:48:56.046Z,21.03
2023-02-08T23:51:24.994Z,21.90
2023-02-08T23:53:52.280Z,22.67
2023-02-08T23:56:25.053Z,20.33
2023-02-08T23:58:55.009Z,21.60
